sensor_id;sensor_type;location;lat;lon;timestamp;P1;P2;P0
34240;PMS7003;20503;50.200;19.508;2023-03-04T00:01:37;35;23;14
34240;PMS7003;20503;50.200;19.508;2023-03-04T00:06:38;35;27;16
34240;PMS7003;20503;50.200;19.508;2023-03-04T00:11:42;39;28;14
34240;PMS7003;20503;50.200;19.508;2023-03-04T00:16:51;39;27;15
34240;PMS7003;20503;50.200;19.508;2023-03-04T00:21:58;42;30;16
34240;PMS7003;20503;50.200;19.508;2023-03-04T00:27:06;42;28;15
34240;PMS7003;20503;50.200;19.508;2023-03-04T00:32:14;47;31;16
34240;PMS7003;20503;50.200;19.508;2023-03-04T00:37:22;42;29;16
34240;PMS7003;20503;50.200;19.508;2023-03-04T00:42:30;41;28;14
34240;PMS7003;20503;50.200;19.508;2023-03-04T00:47:37;48;32;17
34240;PMS7003;20503;50.200;19.508;2023-03-04T00:52:45;52;35;18
34240;PMS7003;20503;50.200;19.508;2023-03-04T00:57:53;42;29;18
34240;PMS7003;20503;50.200;19.508;2023-03-04T01:03:01;45;34;16
34240;PMS7003;20503;50.200;19.508;2023-03-04T01:08:09;45;29;16
34240;PMS7003;20503;50.200;19.508;2023-03-04T01:13:17;44;31;17
34240;PMS7003;20503;50.200;19.508;2023-03-04T01:18:25;48;33;16
34240;PMS7003;20503;50.200;19.508;2023-03-04T01:23:33;44;29;15
34240;PMS7003;20503;50.200;19.508;2023-03-04T01:28:41;44;28;16
34240;PMS7003;20503;50.200;19.508;2023-03-04T01:33:49;48;32;16
34240;PMS7003;20503;50.200;19.508;2023-03-04T01:38:57;39;29;15
34240;PMS7003;20503;50.200;19.508;2023-03-04T01:44:04;46;31;15
34240;PMS7003;20503;50.200;19.508;2023-03-04T01:49:12;46;31;16
34240;PMS7003;20503;50.200;19.508;2023-03-04T01:54:21;47;31;16
34240;PMS7003;20503;50.200;19.508;2023-03-04T01:59:29;46;32;15
34240;PMS7003;20503;50.200;19.508;2023-03-04T02:04:35;41;28;17
34240;PMS7003;20503;50.200;19.508;2023-03-04T02:09:44;42;29;16
34240;PMS7003;20503;50.200;19.508;2023-03-04T02:14:52;44;31;15
34240;PMS7003;20503;50.200;19.508;2023-03-04T02:25:14;42;30;16
34240;PMS7003;20503;50.200;19.508;2023-03-04T02:30:23;43;33;16
34240;PMS7003;20503;50.200;19.508;2023-03-04T02:35:28;38;27;14
34240;PMS7003;20503;50.200;19.508;2023-03-04T02:40:30;45;30;14
34240;PMS7003;20503;50.200;19.508;2023-03-04T02:45:42;39;29;15
34240;PMS7003;20503;50.200;19.508;2023-03-04T02:50:47;35;27;15
34240;PMS7003;20503;50.200;19.508;2023-03-04T02:55:54;47;29;15
34240;PMS7003;20503;50.200;19.508;2023-03-04T03:01:02;38;29;16
34240;PMS7003;20503;50.200;19.508;2023-03-04T03:06:10;40;28;16
34240;PMS7003;20503;50.200;19.508;2023-03-04T03:11:18;38;28;15
34240;PMS7003;20503;50.200;19.508;2023-03-04T03:16:28;39;28;15
34240;PMS7003;20503;50.200;19.508;2023-03-04T03:21:34;34;24;12
34240;PMS7003;20503;50.200;19.508;2023-03-04T03:26:42;31;24;15
34240;PMS7003;20503;50.200;19.508;2023-03-04T03:31:49;30;21;13
34240;PMS7003;20503;50.200;19.508;2023-03-04T03:36:57;34;24;12
34240;PMS7003;20503;50.200;19.508;2023-03-04T03:42:05;34;19;12
34240;PMS7003;20503;50.200;19.508;2023-03-04T03:47:12;34;26;13
34240;PMS7003;20503;50.200;19.508;2023-03-04T03:52:21;30;21;13
34240;PMS7003;20503;50.200;19.508;2023-03-04T03:57:29;41;28;15
34240;PMS7003;20503;50.200;19.508;2023-03-04T04:02:37;34;22;13
34240;PMS7003;20503;50.200;19.508;2023-03-04T04:07:44;38;25;13
34240;PMS7003;20503;50.200;19.508;2023-03-04T04:12:52;43;27;14
34240;PMS7003;20503;50.200;19.508;2023-03-04T04:18:02;39;29;14
34240;PMS7003;20503;50.200;19.508;2023-03-04T04:23:08;31;25;14
34240;PMS7003;20503;50.200;19.508;2023-03-04T04:28:15;36;24;13
34240;PMS7003;20503;50.200;19.508;2023-03-04T04:33:23;40;27;14
34240;PMS7003;20503;50.200;19.508;2023-03-04T04:38:32;37;26;13
34240;PMS7003;20503;50.200;19.508;2023-03-04T04:43:40;35;23;13
34240;PMS7003;20503;50.200;19.508;2023-03-04T04:48:48;39;28;15
34240;PMS7003;20503;50.200;19.508;2023-03-04T04:53:55;41;29;15
34240;PMS7003;20503;50.200;19.508;2023-03-04T04:59:04;37;26;14
34240;PMS7003;20503;50.200;19.508;2023-03-04T05:04:11;36;25;12
34240;PMS7003;20503;50.200;19.508;2023-03-04T05:09:18;46;31;17
34240;PMS7003;20503;50.200;19.508;2023-03-04T05:14:26;47;33;18
34240;PMS7003;20503;50.200;19.508;2023-03-04T05:19:34;47;31;16
34240;PMS7003;20503;50.200;19.508;2023-03-04T05:24:41;41;30;18
34240;PMS7003;20503;50.200;19.508;2023-03-04T05:29:49;48;34;19
34240;PMS7003;20503;50.200;19.508;2023-03-04T05:34:58;48;31;16
34240;PMS7003;20503;50.200;19.508;2023-03-04T05:40:07;42;30;17
34240;PMS7003;20503;50.200;19.508;2023-03-04T05:45:13;45;30;16
34240;PMS7003;20503;50.200;19.508;2023-03-04T05:50:21;40;29;16
34240;PMS7003;20503;50.200;19.508;2023-03-04T05:55:28;37;27;16
34240;PMS7003;20503;50.200;19.508;2023-03-04T06:00:37;35;23;13
34240;PMS7003;20503;50.200;19.508;2023-03-04T06:05:44;35;25;13
34240;PMS7003;20503;50.200;19.508;2023-03-04T06:10:53;41;28;16
34240;PMS7003;20503;50.200;19.508;2023-03-04T06:16:00;35;26;15
34240;PMS7003;20503;50.200;19.508;2023-03-04T06:21:08;47;30;16
34240;PMS7003;20503;50.200;19.508;2023-03-04T06:26:16;36;26;16
34240;PMS7003;20503;50.200;19.508;2023-03-04T06:31:24;42;26;16
34240;PMS7003;20503;50.200;19.508;2023-03-04T06:36:32;41;24;14
34240;PMS7003;20503;50.200;19.508;2023-03-04T06:41:40;37;29;15
34240;PMS7003;20503;50.200;19.508;2023-03-04T06:46:48;51;36;21
34240;PMS7003;20503;50.200;19.508;2023-03-04T06:51:56;46;31;15
34240;PMS7003;20503;50.200;19.508;2023-03-04T06:57:06;32;24;14
34240;PMS7003;20503;50.200;19.508;2023-03-04T07:02:12;29;20;13
34240;PMS7003;20503;50.200;19.508;2023-03-04T07:07:19;40;26;13
34240;PMS7003;20503;50.200;19.508;2023-03-04T07:12:28;54;36;20
34240;PMS7003;20503;50.200;19.508;2023-03-04T07:17:35;42;28;17
34240;PMS7003;20503;50.200;19.508;2023-03-04T07:22:44;42;28;14
34240;PMS7003;20503;50.200;19.508;2023-03-04T07:27:51;44;30;18
34240;PMS7003;20503;50.200;19.508;2023-03-04T07:32:58;35;28;13
34240;PMS7003;20503;50.200;19.508;2023-03-04T07:38:08;39;27;13
34240;PMS7003;20503;50.200;19.508;2023-03-04T07:43:14;35;28;14
34240;PMS7003;20503;50.200;19.508;2023-03-04T07:48:22;45;31;18
34240;PMS7003;20503;50.200;19.508;2023-03-04T07:53:30;36;27;16
34240;PMS7003;20503;50.200;19.508;2023-03-04T07:58:37;30;22;13
34240;PMS7003;20503;50.200;19.508;2023-03-04T08:03:45;38;27;14
34240;PMS7003;20503;50.200;19.508;2023-03-04T08:08:57;31;23;13
34240;PMS7003;20503;50.200;19.508;2023-03-04T08:14:04;40;29;14
34240;PMS7003;20503;50.200;19.508;2023-03-04T08:19:09;41;29;15
34240;PMS7003;20503;50.200;19.508;2023-03-04T08:24:17;42;25;13
34240;PMS7003;20503;50.200;19.508;2023-03-04T08:29:25;48;35;21
34240;PMS7003;20503;50.200;19.508;2023-03-04T08:34:33;46;32;19
34240;PMS7003;20503;50.200;19.508;2023-03-04T08:39:41;35;27;16
34240;PMS7003;20503;50.200;19.508;2023-03-04T08:44:49;39;26;16
34240;PMS7003;20503;50.200;19.508;2023-03-04T08:49:57;35;27;14
34240;PMS7003;20503;50.200;19.508;2023-03-04T08:55:05;41;28;15
34240;PMS7003;20503;50.200;19.508;2023-03-04T09:00:13;35;28;14
34240;PMS7003;20503;50.200;19.508;2023-03-04T09:05:21;29;24;12
34240;PMS7003;20503;50.200;19.508;2023-03-04T09:10:28;30;25;15
34240;PMS7003;20503;50.200;19.508;2023-03-04T09:15:35;40;32;16
34240;PMS7003;20503;50.200;19.508;2023-03-04T09:20:43;33;26;16
34240;PMS7003;20503;50.200;19.508;2023-03-04T09:25:51;42;30;14
34240;PMS7003;20503;50.200;19.508;2023-03-04T09:30:59;36;27;16
34240;PMS7003;20503;50.200;19.508;2023-03-04T09:36:08;36;28;14
34240;PMS7003;20503;50.200;19.508;2023-03-04T09:46:30;35;27;15
34240;PMS7003;20503;50.200;19.508;2023-03-04T09:56:48;30;24;14
34240;PMS7003;20503;50.200;19.508;2023-03-04T10:01:56;30;24;15
34240;PMS7003;20503;50.200;19.508;2023-03-04T10:07:00;38;27;16
34240;PMS7003;20503;50.200;19.508;2023-03-04T10:12:05;43;28;14
34240;PMS7003;20503;50.200;19.508;2023-03-04T10:27:36;37;26;12
34240;PMS7003;20503;50.200;19.508;2023-03-04T10:32:38;35;28;15
34240;PMS7003;20503;50.200;19.508;2023-03-04T10:37:49;37;28;16
34240;PMS7003;20503;50.200;19.508;2023-03-04T10:42:51;30;26;16
34240;PMS7003;20503;50.200;19.508;2023-03-04T10:47:59;36;25;14
34240;PMS7003;20503;50.200;19.508;2023-03-04T10:53:09;32;24;13
34240;PMS7003;20503;50.200;19.508;2023-03-04T10:58:19;27;21;12
34240;PMS7003;20503;50.200;19.508;2023-03-04T11:08:33;37;27;13
34240;PMS7003;20503;50.200;19.508;2023-03-04T11:13:39;28;22;13
34240;PMS7003;20503;50.200;19.508;2023-03-04T11:18:54;29;23;13
34240;PMS7003;20503;50.200;19.508;2023-03-04T11:24:01;36;28;14
34240;PMS7003;20503;50.200;19.508;2023-03-04T11:39:34;46;33;17
34240;PMS7003;20503;50.200;19.508;2023-03-04T11:44:39;45;32;17
34240;PMS7003;20503;50.200;19.508;2023-03-04T12:05:36;52;35;18
34240;PMS7003;20503;50.200;19.508;2023-03-04T12:10:53;51;36;22
34240;PMS7003;20503;50.200;19.508;2023-03-04T12:16:06;47;34;19
34240;PMS7003;20503;50.200;19.508;2023-03-04T12:31:42;49;34;18
34240;PMS7003;20503;50.200;19.508;2023-03-04T12:57:50;46;31;18
34240;PMS7003;20503;50.200;19.508;2023-03-04T13:18:36;44;31;18
34240;PMS7003;20503;50.200;19.508;2023-03-04T13:23:40;47;35;20
34240;PMS7003;20503;50.200;19.508;2023-03-04T13:28:42;37;27;16
34240;PMS7003;20503;50.200;19.508;2023-03-04T13:33:45;45;33;17
34240;PMS7003;20503;50.200;19.508;2023-03-04T13:38:58;41;30;17
34240;PMS7003;20503;50.200;19.508;2023-03-04T13:44:01;41;29;19
34240;PMS7003;20503;50.200;19.508;2023-03-04T13:49:15;53;36;21
34240;PMS7003;20503;50.200;19.508;2023-03-04T13:54:24;39;29;18
34240;PMS7003;20503;50.200;19.508;2023-03-04T14:25:36;41;30;16
34240;PMS7003;20503;50.200;19.508;2023-03-04T14:30:37;56;41;23
34240;PMS7003;20503;50.200;19.508;2023-03-04T14:35:45;49;37;20
34240;PMS7003;20503;50.200;19.508;2023-03-04T14:40:51;46;35;20
34240;PMS7003;20503;50.200;19.508;2023-03-04T14:45:57;47;32;19
34240;PMS7003;20503;50.200;19.508;2023-03-04T14:51:01;54;36;20
34240;PMS7003;20503;50.200;19.508;2023-03-04T14:56:05;47;33;20
34240;PMS7003;20503;50.200;19.508;2023-03-04T15:06:19;51;35;18
34240;PMS7003;20503;50.200;19.508;2023-03-04T15:11:24;44;29;16
34240;PMS7003;20503;50.200;19.508;2023-03-04T15:16:28;40;31;17
34240;PMS7003;20503;50.200;19.508;2023-03-04T15:21:40;43;31;17
34240;PMS7003;20503;50.200;19.508;2023-03-04T15:26:42;44;30;16
34240;PMS7003;20503;50.200;19.508;2023-03-04T15:31:45;38;28;16
34240;PMS7003;20503;50.200;19.508;2023-03-04T15:36:52;35;25;13
34240;PMS7003;20503;50.200;19.508;2023-03-04T15:41:56;39;28;16
34240;PMS7003;20503;50.200;19.508;2023-03-04T15:46:57;36;27;15
34240;PMS7003;20503;50.200;19.508;2023-03-04T15:51:59;45;31;19
34240;PMS7003;20503;50.200;19.508;2023-03-04T15:57:05;39;29;15
34240;PMS7003;20503;50.200;19.508;2023-03-04T16:02:14;47;35;19
34240;PMS7003;20503;50.200;19.508;2023-03-04T16:07:22;41;29;17
34240;PMS7003;20503;50.200;19.508;2023-03-04T16:12:25;36;27;15
34240;PMS7003;20503;50.200;19.508;2023-03-04T16:17:28;33;28;14
34240;PMS7003;20503;50.200;19.508;2023-03-04T16:22:30;34;26;17
34240;PMS7003;20503;50.200;19.508;2023-03-04T16:27:31;41;26;14
34240;PMS7003;20503;50.200;19.508;2023-03-04T16:32:32;26;22;13
34240;PMS7003;20503;50.200;19.508;2023-03-04T16:37:37;31;24;13
34240;PMS7003;20503;50.200;19.508;2023-03-04T16:42:39;35;25;13
34240;PMS7003;20503;50.200;19.508;2023-03-04T16:47:41;30;26;17
34240;PMS7003;20503;50.200;19.508;2023-03-04T16:52:43;32;25;14
34240;PMS7003;20503;50.200;19.508;2023-03-04T16:57:47;32;24;14
34240;PMS7003;20503;50.200;19.508;2023-03-04T17:02:52;31;26;14
34240;PMS7003;20503;50.200;19.508;2023-03-04T17:07:56;44;33;19
34240;PMS7003;20503;50.200;19.508;2023-03-04T17:12:59;36;26;15
34240;PMS7003;20503;50.200;19.508;2023-03-04T17:18:07;36;27;17
34240;PMS7003;20503;50.200;19.508;2023-03-04T17:23:14;33;24;15
34240;PMS7003;20503;50.200;19.508;2023-03-04T17:28:21;37;29;16
34240;PMS7003;20503;50.200;19.508;2023-03-04T17:33:29;38;28;18
34240;PMS7003;20503;50.200;19.508;2023-03-04T17:38:38;43;29;18
34240;PMS7003;20503;50.200;19.508;2023-03-04T17:43:49;44;30;15
34240;PMS7003;20503;50.200;19.508;2023-03-04T17:48:54;45;34;18
34240;PMS7003;20503;50.200;19.508;2023-03-04T17:54:02;55;39;22
34240;PMS7003;20503;50.200;19.508;2023-03-04T17:59:12;40;29;17
34240;PMS7003;20503;50.200;19.508;2023-03-04T18:04:17;39;27;16
34240;PMS7003;20503;50.200;19.508;2023-03-04T18:09:26;39;29;16
34240;PMS7003;20503;50.200;19.508;2023-03-04T18:14:34;36;29;17
34240;PMS7003;20503;50.200;19.508;2023-03-04T18:22:47;40;29;17
34240;PMS7003;20503;50.200;19.508;2023-03-04T18:27:55;39;32;19
34240;PMS7003;20503;50.200;19.508;2023-03-04T18:33:03;42;29;18
34240;PMS7003;20503;50.200;19.508;2023-03-04T18:38:10;39;28;17
34240;PMS7003;20503;50.200;19.508;2023-03-04T18:43:18;37;29;17
34240;PMS7003;20503;50.200;19.508;2023-03-04T18:48:26;46;31;17
34240;PMS7003;20503;50.200;19.508;2023-03-04T18:53:35;56;37;20
34240;PMS7003;20503;50.200;19.508;2023-03-04T18:58:42;46;32;18
34240;PMS7003;20503;50.200;19.508;2023-03-04T19:03:51;50;33;18
34240;PMS7003;20503;50.200;19.508;2023-03-04T19:08:59;55;40;22
34240;PMS7003;20503;50.200;19.508;2023-03-04T19:14:07;50;37;21
34240;PMS7003;20503;50.200;19.508;2023-03-04T19:19:15;52;36;20
34240;PMS7003;20503;50.200;19.508;2023-03-04T19:24:23;43;29;17
34240;PMS7003;20503;50.200;19.508;2023-03-04T19:29:30;38;31;18
34240;PMS7003;20503;50.200;19.508;2023-03-04T19:34:38;49;35;20
34240;PMS7003;20503;50.200;19.508;2023-03-04T19:39:46;41;29;17
34240;PMS7003;20503;50.200;19.508;2023-03-04T19:44:54;40;24;16
34240;PMS7003;20503;50.200;19.508;2023-03-04T19:50:07;36;26;14
34240;PMS7003;20503;50.200;19.508;2023-03-04T19:55:10;36;24;15
34240;PMS7003;20503;50.200;19.508;2023-03-04T20:00:18;38;26;15
34240;PMS7003;20503;50.200;19.508;2023-03-04T20:05:26;40;29;17
34240;PMS7003;20503;50.200;19.508;2023-03-04T20:10:35;41;31;18
34240;PMS7003;20503;50.200;19.508;2023-03-04T20:15:42;37;29;16
34240;PMS7003;20503;50.200;19.508;2023-03-04T20:20:50;36;29;15
34240;PMS7003;20503;50.200;19.508;2023-03-04T20:25:58;39;27;16
34240;PMS7003;20503;50.200;19.508;2023-03-04T20:36:18;36;29;16
34240;PMS7003;20503;50.200;19.508;2023-03-04T20:41:22;36;27;17
34240;PMS7003;20503;50.200;19.508;2023-03-04T20:51:44;33;23;15
34240;PMS7003;20503;50.200;19.508;2023-03-04T20:56:46;44;30;18
34240;PMS7003;20503;50.200;19.508;2023-03-04T21:01:51;38;28;16
34240;PMS7003;20503;50.200;19.508;2023-03-04T21:06:59;41;28;16
34240;PMS7003;20503;50.200;19.508;2023-03-04T21:12:06;21;13;10
34240;PMS7003;20503;50.200;19.508;2023-03-04T21:17:14;11;10;7
34240;PMS7003;20503;50.200;19.508;2023-03-04T21:22:22;11;7;5
34240;PMS7003;20503;50.200;19.508;2023-03-04T21:27:30;7;6;4
34240;PMS7003;20503;50.200;19.508;2023-03-04T21:32:38;4;3;2
34240;PMS7003;20503;50.200;19.508;2023-03-04T21:37:46;4;3;2
34240;PMS7003;20503;50.200;19.508;2023-03-04T21:42:54;5;2;1
34240;PMS7003;20503;50.200;19.508;2023-03-04T21:48:03;6;3;2
34240;PMS7003;20503;50.200;19.508;2023-03-04T21:53:11;5;2;2
34240;PMS7003;20503;50.200;19.508;2023-03-04T21:58:19;4;2;2
34240;PMS7003;20503;50.200;19.508;2023-03-04T22:03:27;2;1;1
34240;PMS7003;20503;50.200;19.508;2023-03-04T22:08:35;1;1;0
34240;PMS7003;20503;50.200;19.508;2023-03-04T22:13:42;3;1;1
34240;PMS7003;20503;50.200;19.508;2023-03-04T22:18:51;4;1;0
34240;PMS7003;20503;50.200;19.508;2023-03-04T22:23:59;5;3;2
34240;PMS7003;20503;50.200;19.508;2023-03-04T22:29:07;2;2;1
34240;PMS7003;20503;50.200;19.508;2023-03-04T22:34:15;4;3;2
34240;PMS7003;20503;50.200;19.508;2023-03-04T22:39:23;6;3;2
34240;PMS7003;20503;50.200;19.508;2023-03-04T22:44:31;5;3;2
34240;PMS7003;20503;50.200;19.508;2023-03-04T22:49:39;3;2;1
34240;PMS7003;20503;50.200;19.508;2023-03-04T22:54:46;8;3;2
34240;PMS7003;20503;50.200;19.508;2023-03-04T22:59:54;4;3;3
34240;PMS7003;20503;50.200;19.508;2023-03-04T23:05:02;6;4;4
34240;PMS7003;20503;50.200;19.508;2023-03-04T23:10:12;11;5;3
34240;PMS7003;20503;50.200;19.508;2023-03-04T23:15:18;10;4;2
34240;PMS7003;20503;50.200;19.508;2023-03-04T23:20:26;3;3;2
34240;PMS7003;20503;50.200;19.508;2023-03-04T23:25:35;5;5;3
34240;PMS7003;20503;50.200;19.508;2023-03-04T23:30:43;5;4;3
34240;PMS7003;20503;50.200;19.508;2023-03-04T23:35:51;12;8;4
34240;PMS7003;20503;50.200;19.508;2023-03-04T23:40:58;10;7;5
34240;PMS7003;20503;50.200;19.508;2023-03-04T23:46:06;9;7;5
34240;PMS7003;20503;50.200;19.508;2023-03-04T23:51:14;6;6;4
34240;PMS7003;20503;50.200;19.508;2023-03-04T23:56:23;14;11;5
